sensor_id;sensor_type;location;lat;lon;timestamp;P1;durP1;ratioP1;P2;durP2;ratioP2
65420;SDS011;52028;50.658;14.004;2022-12-18T00:00:46;67.90;;;24.60;;
65420;SDS011;52028;50.658;14.004;2022-12-18T00:03:15;71.95;;;24.73;;
65420;SDS011;52028;50.658;14.004;2022-12-18T00:05:48;79.18;;;26.35;;
65420;SDS011;52028;50.658;14.004;2022-12-18T00:08:14;70.88;;;25.90;;
65420;SDS011;52028;50.658;14.004;2022-12-18T00:10:41;100.93;;;29.42;;
65420;SDS011;52028;50.658;14.004;2022-12-18T00:13:06;90.00;;;28.98;;
65420;SDS011;52028;50.658;14.004;2022-12-18T00:15:33;101.53;;;30.95;;
65420;SDS011;52028;50.658;14.004;2022-12-18T00:17:59;85.68;;;27.77;;
65420;SDS011;52028;50.658;14.004;2022-12-18T00:20:24;115.45;;;34.35;;
65420;SDS011;52028;50.658;14.004;2022-12-18T00:22:51;124.95;;;37.15;;
65420;SDS011;52028;50.658;14.004;2022-12-18T00:25:17;112.07;;;38.88;;
65420;SDS011;52028;50.658;14.004;2022-12-18T00:27:42;92.03;;;29.55;;
65420;SDS011;52028;50.658;14.004;2022-12-18T00:30:08;114.32;;;32.53;;
65420;SDS011;52028;50.658;14.004;2022-12-18T00:32:34;97.78;;;28.60;;
65420;SDS011;52028;50.658;14.004;2022-12-18T00:34:59;90.68;;;28.30;;
65420;SDS011;52028;50.658;14.004;2022-12-18T00:37:24;66.82;;;24.75;;
65420;SDS011;52028;50.658;14.004;2022-12-18T00:39:50;56.03;;;23.45;;
65420;SDS011;52028;50.658;14.004;2022-12-18T00:42:15;74.60;;;24.10;;
65420;SDS011;52028;50.658;14.004;2022-12-18T00:44:59;64.07;;;20.33;;
65420;SDS011;52028;50.658;14.004;2022-12-18T00:47:24;56.15;;;21.10;;
65420;SDS011;52028;50.658;14.004;2022-12-18T00:49:49;50.60;;;19.45;;
65420;SDS011;52028;50.658;14.004;2022-12-18T00:52:15;48.80;;;18.80;;
65420;SDS011;52028;50.658;14.004;2022-12-18T00:54:40;66.35;;;23.25;;
65420;SDS011;52028;50.658;14.004;2022-12-18T00:57:05;73.25;;;21.77;;
65420;SDS011;52028;50.658;14.004;2022-12-18T00:59:31;58.78;;;20.77;;
65420;SDS011;52028;50.658;14.004;2022-12-18T01:01:56;60.97;;;21.85;;
65420;SDS011;52028;50.658;14.004;2022-12-18T01:04:21;62.95;;;23.23;;
65420;SDS011;52028;50.658;14.004;2022-12-18T01:06:47;65.32;;;22.02;;
65420;SDS011;52028;50.658;14.004;2022-12-18T01:09:12;57.10;;;21.42;;
65420;SDS011;52028;50.658;14.004;2022-12-18T01:11:38;63.70;;;21.42;;
65420;SDS011;52028;50.658;14.004;2022-12-18T01:14:03;75.88;;;24.92;;
65420;SDS011;52028;50.658;14.004;2022-12-18T01:16:29;65.28;;;23.20;;
65420;SDS011;52028;50.658;14.004;2022-12-18T01:18:54;70.57;;;23.67;;
65420;SDS011;52028;50.658;14.004;2022-12-18T01:21:20;57.58;;;21.88;;
65420;SDS011;52028;50.658;14.004;2022-12-18T01:23:46;67.43;;;24.25;;
65420;SDS011;52028;50.658;14.004;2022-12-18T01:26:13;77.78;;;24.20;;
65420;SDS011;52028;50.658;14.004;2022-12-18T01:28:40;73.60;;;23.67;;
65420;SDS011;52028;50.658;14.004;2022-12-18T01:31:22;63.75;;;23.40;;
65420;SDS011;52028;50.658;14.004;2022-12-18T01:33:50;62.42;;;21.15;;
65420;SDS011;52028;50.658;14.004;2022-12-18T01:36:17;61.15;;;21.90;;
65420;SDS011;52028;50.658;14.004;2022-12-18T01:38:47;56.80;;;19.02;;
65420;SDS011;52028;50.658;14.004;2022-12-18T01:41:14;64.15;;;20.30;;
65420;SDS011;52028;50.658;14.004;2022-12-18T01:43:42;70.63;;;20.25;;
65420;SDS011;52028;50.658;14.004;2022-12-18T01:46:28;59.17;;;19.75;;
65420;SDS011;52028;50.658;14.004;2022-12-18T01:48:54;64.00;;;20.17;;
65420;SDS011;52028;50.658;14.004;2022-12-18T01:51:22;69.55;;;19.90;;
65420;SDS011;52028;50.658;14.004;2022-12-18T01:53:48;54.63;;;20.02;;
65420;SDS011;52028;50.658;14.004;2022-12-18T01:56:18;75.13;;;22.13;;
65420;SDS011;52028;50.658;14.004;2022-12-18T01:58:54;63.58;;;21.27;;
65420;SDS011;52028;50.658;14.004;2022-12-18T02:01:25;69.03;;;23.13;;
65420;SDS011;52028;50.658;14.004;2022-12-18T02:03:50;58.28;;;20.00;;
65420;SDS011;52028;50.658;14.004;2022-12-18T02:09:20;64.35;;;21.17;;
65420;SDS011;52028;50.658;14.004;2022-12-18T02:14:45;57.35;;;22.15;;
65420;SDS011;52028;50.658;14.004;2022-12-18T02:17:35;65.15;;;21.38;;
65420;SDS011;52028;50.658;14.004;2022-12-18T02:23:06;67.72;;;24.48;;
65420;SDS011;52028;50.658;14.004;2022-12-18T02:25:40;71.82;;;23.92;;
65420;SDS011;52028;50.658;14.004;2022-12-18T02:28:31;61.53;;;22.45;;
65420;SDS011;52028;50.658;14.004;2022-12-18T02:31:00;78.72;;;27.52;;
65420;SDS011;52028;50.658;14.004;2022-12-18T02:33:27;79.95;;;25.45;;
65420;SDS011;52028;50.658;14.004;2022-12-18T02:35:55;73.05;;;24.85;;
65420;SDS011;52028;50.658;14.004;2022-12-18T02:38:22;70.40;;;24.55;;
65420;SDS011;52028;50.658;14.004;2022-12-18T02:40:48;72.70;;;25.40;;
65420;SDS011;52028;50.658;14.004;2022-12-18T02:43:15;64.35;;;24.00;;
65420;SDS011;52028;50.658;14.004;2022-12-18T02:45:47;57.92;;;22.58;;
65420;SDS011;52028;50.658;14.004;2022-12-18T02:48:24;51.80;;;20.80;;
65420;SDS011;52028;50.658;14.004;2022-12-18T02:53:45;57.47;;;21.75;;
65420;SDS011;52028;50.658;14.004;2022-12-18T02:56:29;69.30;;;22.80;;
65420;SDS011;52028;50.658;14.004;2022-12-18T02:59:13;66.90;;;23.17;;
65420;SDS011;52028;50.658;14.004;2022-12-18T03:07:26;52.03;;;19.17;;
65420;SDS011;52028;50.658;14.004;2022-12-18T03:10:00;59.92;;;21.73;;
65420;SDS011;52028;50.658;14.004;2022-12-18T03:15:21;52.40;;;21.45;;
65420;SDS011;52028;50.658;14.004;2022-12-18T03:17:57;59.05;;;23.15;;
65420;SDS011;52028;50.658;14.004;2022-12-18T03:20:27;62.00;;;24.15;;
65420;SDS011;52028;50.658;14.004;2022-12-18T03:22:59;65.22;;;23.65;;
65420;SDS011;52028;50.658;14.004;2022-12-18T03:25:39;64.53;;;23.58;;
65420;SDS011;52028;50.658;14.004;2022-12-18T03:28:07;49.97;;;21.20;;
65420;SDS011;52028;50.658;14.004;2022-12-18T03:30:37;58.95;;;22.63;;
65420;SDS011;52028;50.658;14.004;2022-12-18T03:33:39;52.50;;;21.13;;
65420;SDS011;52028;50.658;14.004;2022-12-18T03:36:02;48.03;;;20.98;;
65420;SDS011;52028;50.658;14.004;2022-12-18T03:38:28;59.05;;;22.55;;
65420;SDS011;52028;50.658;14.004;2022-12-18T03:41:04;44.25;;;17.75;;
65420;SDS011;52028;50.658;14.004;2022-12-18T03:46:27;57.60;;;20.83;;
65420;SDS011;52028;50.658;14.004;2022-12-18T03:49:06;53.58;;;20.10;;
65420;SDS011;52028;50.658;14.004;2022-12-18T03:51:41;63.22;;;23.73;;
65420;SDS011;52028;50.658;14.004;2022-12-18T03:54:11;63.45;;;20.95;;
65420;SDS011;52028;50.658;14.004;2022-12-18T03:56:45;67.63;;;21.67;;
65420;SDS011;52028;50.658;14.004;2022-12-18T03:59:15;59.05;;;20.15;;
65420;SDS011;52028;50.658;14.004;2022-12-18T04:01:42;61.72;;;21.30;;
65420;SDS011;52028;50.658;14.004;2022-12-18T04:04:12;51.60;;;18.88;;
65420;SDS011;52028;50.658;14.004;2022-12-18T04:06:39;55.83;;;19.25;;
65420;SDS011;52028;50.658;14.004;2022-12-18T04:09:06;62.53;;;21.70;;
65420;SDS011;52028;50.658;14.004;2022-12-18T04:11:32;53.50;;;18.75;;
65420;SDS011;52028;50.658;14.004;2022-12-18T04:13:57;52.80;;;19.52;;
65420;SDS011;52028;50.658;14.004;2022-12-18T04:16:24;53.78;;;19.88;;
65420;SDS011;52028;50.658;14.004;2022-12-18T04:18:50;55.88;;;20.20;;
65420;SDS011;52028;50.658;14.004;2022-12-18T04:21:15;63.63;;;19.80;;
65420;SDS011;52028;50.658;14.004;2022-12-18T04:23:40;50.58;;;18.75;;
65420;SDS011;52028;50.658;14.004;2022-12-18T04:26:06;52.80;;;20.35;;
65420;SDS011;52028;50.658;14.004;2022-12-18T04:28:31;50.25;;;18.48;;
65420;SDS011;52028;50.658;14.004;2022-12-18T04:30:56;44.40;;;17.48;;
65420;SDS011;52028;50.658;14.004;2022-12-18T04:33:22;55.28;;;20.92;;
65420;SDS011;52028;50.658;14.004;2022-12-18T04:35:47;60.10;;;20.17;;
65420;SDS011;52028;50.658;14.004;2022-12-18T04:38:12;57.08;;;20.70;;
65420;SDS011;52028;50.658;14.004;2022-12-18T04:40:38;63.90;;;21.80;;
65420;SDS011;52028;50.658;14.004;2022-12-18T04:43:03;59.33;;;20.48;;
65420;SDS011;52028;50.658;14.004;2022-12-18T04:45:29;54.50;;;19.98;;
65420;SDS011;52028;50.658;14.004;2022-12-18T04:47:57;61.88;;;21.05;;
65420;SDS011;52028;50.658;14.004;2022-12-18T04:50:24;54.22;;;21.20;;
65420;SDS011;52028;50.658;14.004;2022-12-18T04:52:49;61.08;;;22.15;;
65420;SDS011;52028;50.658;14.004;2022-12-18T04:55:15;65.63;;;22.27;;
65420;SDS011;52028;50.658;14.004;2022-12-18T04:57:40;56.17;;;20.77;;
65420;SDS011;52028;50.658;14.004;2022-12-18T05:00:05;63.45;;;22.13;;
65420;SDS011;52028;50.658;14.004;2022-12-18T05:02:31;54.05;;;20.70;;
65420;SDS011;52028;50.658;14.004;2022-12-18T05:04:57;65.25;;;21.00;;
65420;SDS011;52028;50.658;14.004;2022-12-18T05:07:22;53.47;;;21.98;;
65420;SDS011;52028;50.658;14.004;2022-12-18T05:09:47;64.15;;;21.90;;
65420;SDS011;52028;50.658;14.004;2022-12-18T05:12:13;61.28;;;20.95;;
65420;SDS011;52028;50.658;14.004;2022-12-18T05:14:38;63.00;;;22.85;;
65420;SDS011;52028;50.658;14.004;2022-12-18T05:17:03;59.65;;;20.88;;
65420;SDS011;52028;50.658;14.004;2022-12-18T05:19:29;61.45;;;22.08;;
65420;SDS011;52028;50.658;14.004;2022-12-18T05:21:54;68.63;;;22.58;;
65420;SDS011;52028;50.658;14.004;2022-12-18T05:24:19;56.25;;;20.73;;
65420;SDS011;52028;50.658;14.004;2022-12-18T05:26:45;52.85;;;21.98;;
65420;SDS011;52028;50.658;14.004;2022-12-18T05:29:10;48.88;;;19.10;;
65420;SDS011;52028;50.658;14.004;2022-12-18T05:31:37;47.78;;;19.50;;
65420;SDS011;52028;50.658;14.004;2022-12-18T05:34:03;57.25;;;19.25;;
65420;SDS011;52028;50.658;14.004;2022-12-18T05:36:28;46.72;;;17.98;;
65420;SDS011;52028;50.658;14.004;2022-12-18T05:38:54;56.25;;;19.95;;
65420;SDS011;52028;50.658;14.004;2022-12-18T05:41:19;39.88;;;17.33;;
65420;SDS011;52028;50.658;14.004;2022-12-18T05:43:44;43.70;;;17.88;;
65420;SDS011;52028;50.658;14.004;2022-12-18T05:46:14;41.47;;;17.85;;
65420;SDS011;52028;50.658;14.004;2022-12-18T05:48:42;50.78;;;18.88;;
65420;SDS011;52028;50.658;14.004;2022-12-18T05:51:10;52.20;;;18.92;;
65420;SDS011;52028;50.658;14.004;2022-12-18T05:53:37;43.55;;;18.95;;
65420;SDS011;52028;50.658;14.004;2022-12-18T05:56:04;46.67;;;17.45;;
65420;SDS011;52028;50.658;14.004;2022-12-18T05:58:31;41.92;;;17.33;;
65420;SDS011;52028;50.658;14.004;2022-12-18T06:00:57;42.58;;;17.63;;
65420;SDS011;52028;50.658;14.004;2022-12-18T06:03:30;48.00;;;19.52;;
65420;SDS011;52028;50.658;14.004;2022-12-18T06:05:55;49.15;;;18.45;;
65420;SDS011;52028;50.658;14.004;2022-12-18T06:08:20;47.22;;;18.60;;
65420;SDS011;52028;50.658;14.004;2022-12-18T06:10:49;49.35;;;20.17;;
65420;SDS011;52028;50.658;14.004;2022-12-18T06:13:16;50.83;;;19.70;;
65420;SDS011;52028;50.658;14.004;2022-12-18T06:15:41;45.83;;;18.73;;
65420;SDS011;52028;50.658;14.004;2022-12-18T06:18:07;46.80;;;20.15;;
65420;SDS011;52028;50.658;14.004;2022-12-18T06:20:32;46.25;;;18.33;;
65420;SDS011;52028;50.658;14.004;2022-12-18T06:22:57;53.85;;;20.80;;
65420;SDS011;52028;50.658;14.004;2022-12-18T06:25:23;45.90;;;18.42;;
65420;SDS011;52028;50.658;14.004;2022-12-18T06:27:48;52.05;;;19.55;;
65420;SDS011;52028;50.658;14.004;2022-12-18T06:30:13;48.00;;;20.58;;
65420;SDS011;52028;50.658;14.004;2022-12-18T06:32:39;48.85;;;19.60;;
65420;SDS011;52028;50.658;14.004;2022-12-18T06:35:05;44.95;;;18.52;;
65420;SDS011;52028;50.658;14.004;2022-12-18T06:37:30;50.38;;;21.30;;
65420;SDS011;52028;50.658;14.004;2022-12-18T06:39:56;45.92;;;19.80;;
65420;SDS011;52028;50.658;14.004;2022-12-18T06:42:21;48.60;;;19.27;;
65420;SDS011;52028;50.658;14.004;2022-12-18T06:44:47;50.15;;;20.17;;
65420;SDS011;52028;50.658;14.004;2022-12-18T06:47:12;52.28;;;23.50;;
65420;SDS011;52028;50.658;14.004;2022-12-18T06:49:37;51.05;;;21.00;;
65420;SDS011;52028;50.658;14.004;2022-12-18T06:52:03;38.63;;;18.17;;
65420;SDS011;52028;50.658;14.004;2022-12-18T06:54:28;51.97;;;19.38;;
65420;SDS011;52028;50.658;14.004;2022-12-18T06:56:57;53.90;;;20.98;;
65420;SDS011;52028;50.658;14.004;2022-12-18T06:59:22;54.80;;;21.63;;
65420;SDS011;52028;50.658;14.004;2022-12-18T07:01:47;43.67;;;18.92;;
65420;SDS011;52028;50.658;14.004;2022-12-18T07:04:13;49.83;;;19.52;;
65420;SDS011;52028;50.658;14.004;2022-12-18T07:06:38;51.47;;;20.23;;
65420;SDS011;52028;50.658;14.004;2022-12-18T07:09:03;60.30;;;22.23;;
65420;SDS011;52028;50.658;14.004;2022-12-18T07:11:28;52.05;;;19.70;;
65420;SDS011;52028;50.658;14.004;2022-12-18T07:13:54;47.70;;;20.98;;
65420;SDS011;52028;50.658;14.004;2022-12-18T07:16:20;45.15;;;20.48;;
65420;SDS011;52028;50.658;14.004;2022-12-18T07:18:46;55.40;;;19.80;;
65420;SDS011;52028;50.658;14.004;2022-12-18T07:21:14;57.65;;;20.92;;
65420;SDS011;52028;50.658;14.004;2022-12-18T07:23:41;51.00;;;20.38;;
65420;SDS011;52028;50.658;14.004;2022-12-18T07:26:10;47.42;;;19.52;;
65420;SDS011;52028;50.658;14.004;2022-12-18T07:28:37;47.63;;;18.77;;
65420;SDS011;52028;50.658;14.004;2022-12-18T07:31:05;45.20;;;17.55;;
65420;SDS011;52028;50.658;14.004;2022-12-18T07:33:31;45.60;;;19.27;;
65420;SDS011;52028;50.658;14.004;2022-12-18T07:35:58;45.95;;;19.90;;
65420;SDS011;52028;50.658;14.004;2022-12-18T07:38:24;50.42;;;19.02;;
65420;SDS011;52028;50.658;14.004;2022-12-18T07:40:49;47.95;;;19.42;;
65420;SDS011;52028;50.658;14.004;2022-12-18T07:43:15;44.95;;;18.75;;
65420;SDS011;52028;50.658;14.004;2022-12-18T07:45:41;54.80;;;22.33;;
65420;SDS011;52028;50.658;14.004;2022-12-18T07:48:07;49.55;;;20.17;;
65420;SDS011;52028;50.658;14.004;2022-12-18T07:50:32;52.40;;;21.90;;
65420;SDS011;52028;50.658;14.004;2022-12-18T07:52:58;53.47;;;21.13;;
65420;SDS011;52028;50.658;14.004;2022-12-18T07:55:23;54.95;;;20.75;;
65420;SDS011;52028;50.658;14.004;2022-12-18T07:57:48;54.75;;;22.15;;
65420;SDS011;52028;50.658;14.004;2022-12-18T08:00:14;49.45;;;20.98;;
65420;SDS011;52028;50.658;14.004;2022-12-18T08:02:39;65.53;;;21.30;;
65420;SDS011;52028;50.658;14.004;2022-12-18T08:05:04;50.88;;;21.30;;
65420;SDS011;52028;50.658;14.004;2022-12-18T08:07:30;59.55;;;22.45;;
65420;SDS011;52028;50.658;14.004;2022-12-18T08:09:55;50.38;;;20.10;;
65420;SDS011;52028;50.658;14.004;2022-12-18T08:12:20;54.42;;;20.33;;
65420;SDS011;52028;50.658;14.004;2022-12-18T08:14:46;49.33;;;20.92;;
65420;SDS011;52028;50.658;14.004;2022-12-18T08:17:11;58.67;;;21.90;;
65420;SDS011;52028;50.658;14.004;2022-12-18T08:19:36;59.05;;;21.60;;
65420;SDS011;52028;50.658;14.004;2022-12-18T08:22:02;54.92;;;22.38;;
65420;SDS011;52028;50.658;14.004;2022-12-18T08:24:27;56.92;;;23.63;;
65420;SDS011;52028;50.658;14.004;2022-12-18T08:26:52;63.95;;;27.05;;
65420;SDS011;52028;50.658;14.004;2022-12-18T08:29:18;66.32;;;26.75;;
65420;SDS011;52028;50.658;14.004;2022-12-18T08:31:43;66.95;;;26.83;;
65420;SDS011;52028;50.658;14.004;2022-12-18T08:34:08;72.10;;;27.60;;
65420;SDS011;52028;50.658;14.004;2022-12-18T08:36:34;74.25;;;27.13;;
65420;SDS011;52028;50.658;14.004;2022-12-18T08:39:00;75.40;;;30.35;;
65420;SDS011;52028;50.658;14.004;2022-12-18T08:41:25;75.30;;;29.13;;
65420;SDS011;52028;50.658;14.004;2022-12-18T08:43:50;87.35;;;31.50;;
65420;SDS011;52028;50.658;14.004;2022-12-18T08:46:38;91.25;;;31.60;;
65420;SDS011;52028;50.658;14.004;2022-12-18T08:49:06;76.88;;;30.02;;
65420;SDS011;52028;50.658;14.004;2022-12-18T08:51:33;74.45;;;27.45;;
65420;SDS011;52028;50.658;14.004;2022-12-18T08:53:59;82.15;;;29.05;;
65420;SDS011;52028;50.658;14.004;2022-12-18T08:56:24;71.32;;;27.60;;
65420;SDS011;52028;50.658;14.004;2022-12-18T08:58:53;71.85;;;26.13;;
65420;SDS011;52028;50.658;14.004;2022-12-18T09:01:19;68.22;;;26.77;;
65420;SDS011;52028;50.658;14.004;2022-12-18T09:03:45;75.30;;;28.25;;
65420;SDS011;52028;50.658;14.004;2022-12-18T09:06:13;66.72;;;25.42;;
65420;SDS011;52028;50.658;14.004;2022-12-18T09:08:40;62.58;;;25.35;;
65420;SDS011;52028;50.658;14.004;2022-12-18T09:11:09;66.63;;;28.45;;
65420;SDS011;52028;50.658;14.004;2022-12-18T09:13:38;63.97;;;25.27;;
65420;SDS011;52028;50.658;14.004;2022-12-18T09:16:04;56.88;;;20.83;;
65420;SDS011;52028;50.658;14.004;2022-12-18T09:18:29;57.70;;;21.77;;
65420;SDS011;52028;50.658;14.004;2022-12-18T09:20:54;63.72;;;22.40;;
65420;SDS011;52028;50.658;14.004;2022-12-18T09:23:20;72.97;;;23.58;;
65420;SDS011;52028;50.658;14.004;2022-12-18T09:25:45;71.70;;;26.92;;
65420;SDS011;52028;50.658;14.004;2022-12-18T09:28:14;61.55;;;23.17;;
65420;SDS011;52028;50.658;14.004;2022-12-18T09:30:42;69.72;;;24.73;;
65420;SDS011;52028;50.658;14.004;2022-12-18T09:33:09;59.35;;;23.02;;
65420;SDS011;52028;50.658;14.004;2022-12-18T09:35:41;54.65;;;20.40;;
65420;SDS011;52028;50.658;14.004;2022-12-18T09:38:08;54.67;;;19.95;;
65420;SDS011;52028;50.658;14.004;2022-12-18T09:40:40;58.22;;;21.38;;
65420;SDS011;52028;50.658;14.004;2022-12-18T09:43:10;57.78;;;18.23;;
65420;SDS011;52028;50.658;14.004;2022-12-18T09:45:42;59.25;;;18.88;;
65420;SDS011;52028;50.658;14.004;2022-12-18T09:48:34;41.95;;;15.93;;
65420;SDS011;52028;50.658;14.004;2022-12-18T09:51:04;47.03;;;17.00;;
65420;SDS011;52028;50.658;14.004;2022-12-18T09:53:42;40.08;;;16.33;;
65420;SDS011;52028;50.658;14.004;2022-12-18T09:56:18;35.55;;;14.38;;
65420;SDS011;52028;50.658;14.004;2022-12-18T09:58:49;39.33;;;13.57;;
65420;SDS011;52028;50.658;14.004;2022-12-18T10:01:26;36.47;;;13.02;;
65420;SDS011;52028;50.658;14.004;2022-12-18T10:03:52;37.85;;;14.55;;
65420;SDS011;52028;50.658;14.004;2022-12-18T10:06:39;39.50;;;16.40;;
65420;SDS011;52028;50.658;14.004;2022-12-18T10:09:21;44.03;;;15.77;;
65420;SDS011;52028;50.658;14.004;2022-12-18T10:17:48;43.55;;;16.58;;
65420;SDS011;52028;50.658;14.004;2022-12-18T10:28:12;46.40;;;16.98;;
65420;SDS011;52028;50.658;14.004;2022-12-18T10:30:40;46.55;;;14.98;;
65420;SDS011;52028;50.658;14.004;2022-12-18T10:33:10;44.03;;;16.13;;
65420;SDS011;52028;50.658;14.004;2022-12-18T10:35:46;39.38;;;13.65;;
65420;SDS011;52028;50.658;14.004;2022-12-18T10:40:53;44.17;;;16.33;;
65420;SDS011;52028;50.658;14.004;2022-12-18T10:43:28;44.00;;;16.48;;
65420;SDS011;52028;50.658;14.004;2022-12-18T10:48:33;43.03;;;15.82;;
65420;SDS011;52028;50.658;14.004;2022-12-18T10:51:02;42.97;;;16.60;;
65420;SDS011;52028;50.658;14.004;2022-12-18T10:53:29;46.35;;;18.42;;
65420;SDS011;52028;50.658;14.004;2022-12-18T10:55:57;46.40;;;17.20;;
65420;SDS011;52028;50.658;14.004;2022-12-18T10:58:34;47.33;;;17.08;;
65420;SDS011;52028;50.658;14.004;2022-12-18T11:06:15;48.22;;;18.70;;
65420;SDS011;52028;50.658;14.004;2022-12-18T11:11:24;52.13;;;16.42;;
65420;SDS011;52028;50.658;14.004;2022-12-18T11:16:30;47.63;;;16.70;;
65420;SDS011;52028;50.658;14.004;2022-12-18T11:21:49;48.22;;;14.23;;
65420;SDS011;52028;50.658;14.004;2022-12-18T11:24:34;43.03;;;15.43;;
65420;SDS011;52028;50.658;14.004;2022-12-18T11:27:05;46.15;;;15.30;;
65420;SDS011;52028;50.658;14.004;2022-12-18T11:29:32;45.25;;;15.98;;
65420;SDS011;52028;50.658;14.004;2022-12-18T11:34:41;30.73;;;13.60;;
65420;SDS011;52028;50.658;14.004;2022-12-18T11:37:11;36.53;;;13.30;;
65420;SDS011;52028;50.658;14.004;2022-12-18T11:42:38;37.33;;;14.13;;
65420;SDS011;52028;50.658;14.004;2022-12-18T11:45:28;38.22;;;14.20;;
65420;SDS011;52028;50.658;14.004;2022-12-18T11:50:34;33.35;;;13.48;;
65420;SDS011;52028;50.658;14.004;2022-12-18T11:53:11;43.45;;;13.38;;
65420;SDS011;52028;50.658;14.004;2022-12-18T11:55:39;30.48;;;13.13;;
65420;SDS011;52028;50.658;14.004;2022-12-18T12:04:40;27.77;;;11.20;;
65420;SDS011;52028;50.658;14.004;2022-12-18T12:07:40;33.40;;;13.50;;
65420;SDS011;52028;50.658;14.004;2022-12-18T12:27:47;27.90;;;10.88;;
65420;SDS011;52028;50.658;14.004;2022-12-18T12:30:18;30.08;;;10.85;;
65420;SDS011;52028;50.658;14.004;2022-12-18T12:35:39;30.83;;;12.75;;
65420;SDS011;52028;50.658;14.004;2022-12-18T12:38:11;29.17;;;11.75;;
65420;SDS011;52028;50.658;14.004;2022-12-18T12:41:01;35.28;;;13.10;;
65420;SDS011;52028;50.658;14.004;2022-12-18T12:46:08;37.10;;;12.75;;
65420;SDS011;52028;50.658;14.004;2022-12-18T12:48:43;25.02;;;10.18;;
65420;SDS011;52028;50.658;14.004;2022-12-18T12:54:01;26.27;;;11.27;;
65420;SDS011;52028;50.658;14.004;2022-12-18T12:56:46;29.40;;;12.60;;
65420;SDS011;52028;50.658;14.004;2022-12-18T13:07:51;32.13;;;12.57;;
65420;SDS011;52028;50.658;14.004;2022-12-18T13:10:25;33.95;;;13.25;;
65420;SDS011;52028;50.658;14.004;2022-12-18T13:15:34;45.03;;;15.13;;
65420;SDS011;52028;50.658;14.004;2022-12-18T13:20:33;30.00;;;12.50;;
65420;SDS011;52028;50.658;14.004;2022-12-18T13:23:01;37.25;;;12.82;;
65420;SDS011;52028;50.658;14.004;2022-12-18T13:25:49;38.78;;;14.48;;
65420;SDS011;52028;50.658;14.004;2022-12-18T13:31:11;37.45;;;13.75;;
65420;SDS011;52028;50.658;14.004;2022-12-18T13:33:44;34.75;;;12.80;;
65420;SDS011;52028;50.658;14.004;2022-12-18T13:36:30;39.90;;;16.42;;
65420;SDS011;52028;50.658;14.004;2022-12-18T13:41:48;39.08;;;13.63;;
65420;SDS011;52028;50.658;14.004;2022-12-18T13:46:48;38.58;;;13.07;;
65420;SDS011;52028;50.658;14.004;2022-12-18T13:49:20;40.20;;;15.00;;
65420;SDS011;52028;50.658;14.004;2022-12-18T13:52:01;32.92;;;12.88;;
65420;SDS011;52028;50.658;14.004;2022-12-18T13:54:33;41.75;;;16.52;;
65420;SDS011;52028;50.658;14.004;2022-12-18T13:57:24;39.72;;;14.18;;
65420;SDS011;52028;50.658;14.004;2022-12-18T13:59:54;32.85;;;10.30;;
65420;SDS011;52028;50.658;14.004;2022-12-18T14:02:22;34.85;;;11.38;;
65420;SDS011;52028;50.658;14.004;2022-12-18T14:04:49;33.17;;;12.05;;
65420;SDS011;52028;50.658;14.004;2022-12-18T14:09:50;30.83;;;11.95;;
65420;SDS011;52028;50.658;14.004;2022-12-18T14:12:21;39.40;;;14.52;;
65420;SDS011;52028;50.658;14.004;2022-12-18T14:17:39;34.72;;;12.38;;
65420;SDS011;52028;50.658;14.004;2022-12-18T14:20:05;41.20;;;14.20;;
65420;SDS011;52028;50.658;14.004;2022-12-18T14:22:39;41.67;;;15.52;;
65420;SDS011;52028;50.658;14.004;2022-12-18T14:27:41;45.15;;;15.32;;
65420;SDS011;52028;50.658;14.004;2022-12-18T14:30:23;34.85;;;13.45;;
65420;SDS011;52028;50.658;14.004;2022-12-18T14:33:02;41.85;;;14.07;;
65420;SDS011;52028;50.658;14.004;2022-12-18T14:35:31;37.50;;;13.50;;
65420;SDS011;52028;50.658;14.004;2022-12-18T14:40:40;48.03;;;15.20;;
65420;SDS011;52028;50.658;14.004;2022-12-18T14:43:08;47.88;;;16.40;;
65420;SDS011;52028;50.658;14.004;2022-12-18T14:45:42;49.03;;;17.13;;
65420;SDS011;52028;50.658;14.004;2022-12-18T14:50:44;48.15;;;15.43;;
65420;SDS011;52028;50.658;14.004;2022-12-18T14:53:20;47.58;;;15.85;;
65420;SDS011;52028;50.658;14.004;2022-12-18T14:55:56;45.33;;;14.70;;
65420;SDS011;52028;50.658;14.004;2022-12-18T14:58:22;38.60;;;14.32;;
65420;SDS011;52028;50.658;14.004;2022-12-18T15:00:47;47.53;;;17.73;;
65420;SDS011;52028;50.658;14.004;2022-12-18T15:03:14;48.80;;;15.23;;
65420;SDS011;52028;50.658;14.004;2022-12-18T15:05:44;50.80;;;16.63;;
65420;SDS011;52028;50.658;14.004;2022-12-18T15:08:35;45.92;;;16.17;;
65420;SDS011;52028;50.658;14.004;2022-12-18T15:11:01;45.67;;;15.77;;
65420;SDS011;52028;50.658;14.004;2022-12-18T15:13:27;38.80;;;16.05;;
65420;SDS011;52028;50.658;14.004;2022-12-18T15:15:54;44.53;;;15.70;;
65420;SDS011;52028;50.658;14.004;2022-12-18T15:18:25;43.05;;;16.45;;
65420;SDS011;52028;50.658;14.004;2022-12-18T15:20:57;38.70;;;16.33;;
65420;SDS011;52028;50.658;14.004;2022-12-18T15:23:29;55.33;;;17.33;;
65420;SDS011;52028;50.658;14.004;2022-12-18T15:26:02;34.85;;;15.32;;
65420;SDS011;52028;50.658;14.004;2022-12-18T15:31:03;38.05;;;14.73;;
65420;SDS011;52028;50.658;14.004;2022-12-18T15:33:37;39.97;;;15.23;;
65420;SDS011;52028;50.658;14.004;2022-12-18T15:36:14;44.15;;;15.88;;
65420;SDS011;52028;50.658;14.004;2022-12-18T15:38:41;40.53;;;14.55;;
65420;SDS011;52028;50.658;14.004;2022-12-18T15:41:13;38.97;;;14.85;;
65420;SDS011;52028;50.658;14.004;2022-12-18T15:43:43;43.53;;;16.55;;
65420;SDS011;52028;50.658;14.004;2022-12-18T15:46:13;35.55;;;14.70;;
65420;SDS011;52028;50.658;14.004;2022-12-18T15:51:16;40.88;;;15.00;;
65420;SDS011;52028;50.658;14.004;2022-12-18T15:53:42;42.47;;;15.30;;
65420;SDS011;52028;50.658;14.004;2022-12-18T15:56:11;38.25;;;14.60;;
65420;SDS011;52028;50.658;14.004;2022-12-18T15:58:56;38.30;;;14.80;;
65420;SDS011;52028;50.658;14.004;2022-12-18T16:01:30;46.25;;;16.05;;
65420;SDS011;52028;50.658;14.004;2022-12-18T16:03:56;41.13;;;14.90;;
65420;SDS011;52028;50.658;14.004;2022-12-18T16:06:22;45.55;;;15.45;;
65420;SDS011;52028;50.658;14.004;2022-12-18T16:08:48;49.00;;;18.15;;
65420;SDS011;52028;50.658;14.004;2022-12-18T16:11:23;44.92;;;16.17;;
65420;SDS011;52028;50.658;14.004;2022-12-18T16:16:51;48.65;;;15.93;;
65420;SDS011;52028;50.658;14.004;2022-12-18T16:19:18;45.88;;;17.40;;
65420;SDS011;52028;50.658;14.004;2022-12-18T16:21:44;49.80;;;16.85;;
65420;SDS011;52028;50.658;14.004;2022-12-18T16:24:21;41.53;;;16.30;;
65420;SDS011;52028;50.658;14.004;2022-12-18T16:29:17;41.83;;;16.58;;
65420;SDS011;52028;50.658;14.004;2022-12-18T16:31:42;45.00;;;15.95;;
65420;SDS011;52028;50.658;14.004;2022-12-18T16:34:12;41.67;;;16.90;;
65420;SDS011;52028;50.658;14.004;2022-12-18T16:36:47;41.75;;;13.77;;
65420;SDS011;52028;50.658;14.004;2022-12-18T16:39:13;42.90;;;15.18;;
65420;SDS011;52028;50.658;14.004;2022-12-18T16:41:38;41.15;;;14.10;;